Time;durP1;ratioP1;P1;durP2;ratioP2;P2;SDS_P1;SDS_P2;PMS_P1;PMS_P2;Temp;Humidity;BMP_temperature;BMP_pressure;BME280_temperature;BME280_humidity;BME280_pressure;Samples;Min_cycle;Max_cycle;Signal;HPM_P1;HPM_P2
2023/04/12 00:01:17;;;;;;;57.03;44.38;;;30.90;76.70;;;;;;1830755;77;21134;-82
2023/04/12 00:03:49;;;;;;;47.58;41.02;;;30.90;76.40;;;;;;1829789;77;21132;-84
2023/04/12 00:06:31;;;;;;;49.73;42.78;;;30.90;76.70;;;;;;1827623;77;21185;-83
2023/04/12 00:08:53;;;;;;;50.75;43.30;;;30.90;77.30;;;;;;1825269;76;21147;-82
2023/04/12 00:11:24;;;;;;;48.28;42.27;;;30.90;77.60;;;;;;1829671;77;21118;-84
2023/04/12 00:13:55;;;;;;;48.85;42.15;;;30.90;77.50;;;;;;1823073;77;21265;-83
2023/04/12 00:16:27;;;;;;;52.62;40.98;;;30.90;77.40;;;;;;1823753;77;21208;-84
2023/04/12 00:19:00;;;;;;;44.80;40.00;;;30.90;76.90;;;;;;1828873;77;21172;-83
2023/04/12 00:21:31;;;;;;;47.23;39.92;;;30.90;76.90;;;;;;1832366;77;21826;-82
2023/04/12 00:24:02;;;;;;;44.30;39.60;;;30.90;77.00;;;;;;1820360;78;21095;-82
2023/04/12 00:26:33;;;;;;;47.75;42.70;;;30.90;76.60;;;;;;1820478;77;21158;-83
2023/04/12 00:29:04;;;;;;;47.23;42.13;;;30.90;78.10;;;;;;1833619;77;21205;-83
2023/04/12 00:31:35;;;;;;;48.45;42.27;;;30.90;77.60;;;;;;1831758;77;21818;-83
2023/04/12 00:34:06;;;;;;;51.00;42.55;;;30.90;78.10;;;;;;1829400;77;21142;-82
2023/04/12 00:36:37;;;;;;;51.92;43.25;;;30.80;77.50;;;;;;1823138;78;21717;-83
2023/04/12 00:39:08;;;;;;;48.23;43.02;;;30.80;77.40;;;;;;1825590;77;21189;-82
2023/04/12 00:41:39;;;;;;;52.20;42.40;;;30.80;77.40;;;;;;1817866;78;21101;-82
2023/04/12 00:44:10;;;;;;;50.98;42.40;;;30.80;78.00;;;;;;1831463;77;21137;-84
2023/04/12 00:46:41;;;;;;;49.08;42.50;;;30.80;77.90;;;;;;1787573;79;21107;-85
2023/04/12 00:49:13;;;;;;;51.48;42.93;;;30.80;77.90;;;;;;1790493;79;21115;-84
2023/04/12 00:51:44;;;;;;;49.85;43.23;;;30.90;77.30;;;;;;1841466;77;21217;-85
2023/04/12 00:54:17;;;;;;;49.23;42.70;;;30.90;77.20;;;;;;1814157;77;21539;-85
2023/04/12 00:56:48;;;;;;;48.25;43.20;;;30.90;77.70;;;;;;1819520;77;21112;-83
2023/04/12 00:59:19;;;;;;;51.55;43.25;;;30.90;77.80;;;;;;1835533;77;21093;-84
2023/04/12 01:01:51;;;;;;;49.08;41.18;;;30.90;78.50;;;;;;1816560;77;21170;-75
2023/04/12 01:04:25;;;;;;;50.12;42.93;;;31.00;78.50;;;;;;1825871;77;21144;-76
2023/04/12 01:07:14;;;;;;;127.62;49.38;;;31.00;78.80;;;;;;1832172;77;21178;-75
2023/04/12 01:09:50;;;;;;;50.95;41.33;;;31.00;78.30;;;;;;1826231;77;21122;-74
2023/04/12 01:12:27;;;;;;;45.92;39.85;;;31.00;77.80;;;;;;1807694;77;21217;-75
2023/04/12 01:15:09;;;;;;;49.77;43.05;;;31.10;77.90;;;;;;1788565;78;21142;-75
2023/04/12 01:17:58;;;;;;;50.40;40.43;;;31.20;78.10;;;;;;1824199;77;21247;-76
2023/04/12 01:20:32;;;;;;;49.60;42.25;;;31.20;77.90;;;;;;1795604;77;21921;-75
2023/04/12 01:23:30;;;;;;;50.28;42.35;;;31.20;78.00;;;;;;1796726;79;21097;-75
2023/04/12 01:26:14;;;;;;;46.00;41.15;;;31.30;77.40;;;;;;1833695;77;21074;-75
2023/04/12 01:31:40;;;;;;;48.95;41.90;;;31.40;77.40;;;;;;1750890;80;21137;-75
2023/04/12 01:34:13;;;;;;;51.42;42.13;;;31.50;76.80;;;;;;1716182;82;21268;-73
2023/04/12 01:36:48;;;;;;;52.88;42.08;;;31.50;77.10;;;;;;1737621;80;21130;-75
2023/04/12 01:39:20;;;;;;;45.50;40.58;;;31.60;76.90;;;;;;1715284;81;21155;-74
2023/04/12 01:41:51;;;;;;;48.10;42.95;;;31.70;76.60;;;;;;1734881;81;21181;-73
2023/04/12 01:44:22;;;;;;;52.17;42.08;;;31.70;76.70;;;;;;1727007;81;21125;-74
2023/04/12 01:46:54;;;;;;;47.67;42.75;;;31.80;76.10;;;;;;1722379;81;21156;-74
2023/04/12 01:49:27;;;;;;;49.45;43.68;;;31.80;76.60;;;;;;1714109;81;21215;-75
2023/04/12 01:52:16;;;;;;;49.53;42.93;;;31.80;76.30;;;;;;1721225;81;21148;-74
2023/04/12 01:54:50;;;;;;;52.70;43.05;;;31.90;76.30;;;;;;1751012;80;21178;-74
2023/04/12 01:57:22;;;;;;;52.38;42.80;;;32.00;75.60;;;;;;1756306;80;21701;-75
2023/04/12 01:59:56;;;;;;;48.83;41.73;;;32.00;75.40;;;;;;1748011;81;21173;-73
2023/04/12 02:02:27;;;;;;;50.30;43.17;;;32.10;75.60;;;;;;1730592;81;21260;-73
2023/04/12 02:05:00;;;;;;;45.15;40.38;;;32.10;75.50;;;;;;1715955;81;21229;-75
2023/04/12 02:07:32;;;;;;;50.98;39.90;;;32.20;75.20;;;;;;1731907;81;21215;-74
2023/04/12 02:10:03;;;;;;;47.35;41.05;;;32.20;75.60;;;;;;1728042;81;21152;-75
2023/04/12 02:12:34;;;;;;;49.05;41.45;;;32.30;75.00;;;;;;1714894;82;21669;-75
2023/04/12 02:15:06;;;;;;;47.78;42.20;;;32.40;75.20;;;;;;1714453;81;21242;-76
2023/04/12 02:17:38;;;;;;;47.00;41.90;;;32.50;74.70;;;;;;1761893;78;21214;-74
2023/04/12 02:20:10;;;;;;;50.50;42.67;;;32.50;74.50;;;;;;1773994;79;21537;-74
2023/04/12 02:22:42;;;;;;;49.75;43.75;;;32.60;74.30;;;;;;1765464;79;21110;-74
2023/04/12 02:25:14;;;;;;;49.83;42.95;;;32.70;74.30;;;;;;1758572;81;21703;-74
2023/04/12 02:27:48;;;;;;;48.23;43.23;;;32.80;73.80;;;;;;1774010;78;21181;-73
2023/04/12 02:30:19;;;;;;;49.18;43.73;;;32.90;73.40;;;;;;1787370;78;21241;-73
2023/04/12 02:32:51;;;;;;;53.28;43.20;;;33.10;73.10;;;;;;1767489;79;21141;-74
2023/04/12 02:35:23;;;;;;;47.00;41.95;;;33.20;72.90;;;;;;1775666;78;21139;-75
2023/04/12 02:37:55;;;;;;;49.93;42.62;;;33.30;72.20;;;;;;1781572;78;21161;-76
2023/04/12 02:40:26;;;;;;;49.00;42.38;;;33.40;71.90;;;;;;1772385;78;21640;-75
2023/04/12 02:42:57;;;;;;;50.80;43.10;;;33.40;71.90;;;;;;1773331;79;21149;-75
2023/04/12 02:45:28;;;;;;;47.50;40.92;;;33.50;71.70;;;;;;1780281;78;21161;-74
2023/04/12 02:47:59;;;;;;;47.33;42.10;;;33.70;71.20;;;;;;1780263;79;21102;-80
2023/04/12 02:50:31;;;;;;;54.15;43.70;;;33.70;70.50;;;;;;1775109;79;21703;-81
2023/04/12 02:53:02;;;;;;;57.40;43.63;;;33.80;70.50;;;;;;1768191;81;21200;-81
2023/04/12 02:55:33;;;;;;;49.93;43.60;;;33.80;70.20;;;;;;1773309;78;21224;-81
2023/04/12 02:58:04;;;;;;;47.03;42.08;;;34.00;69.80;;;;;;1765363;78;21601;-81
2023/04/12 03:00:35;;;;;;;56.75;44.08;;;34.00;69.80;;;;;;1763500;78;21174;-81
2023/04/12 03:03:07;;;;;;;48.63;41.68;;;34.10;68.70;;;;;;1766787;78;21197;-80
2023/04/12 03:05:38;;;;;;;47.78;42.70;;;34.20;68.20;;;;;;1734360;80;21126;-80
2023/04/12 03:08:09;;;;;;;52.27;44.10;;;34.20;68.70;;;;;;1765601;79;21687;-79
2023/04/12 03:10:40;;;;;;;50.35;44.25;;;34.30;69.20;;;;;;1749091;80;21161;-81
2023/04/12 03:13:11;;;;;;;50.20;44.40;;;34.30;68.60;;;;;;1774442;79;21169;-80
2023/04/12 03:15:45;;;;;;;50.43;44.93;;;34.30;69.00;;;;;;1774860;79;21161;-80
2023/04/12 03:18:19;;;;;;;47.85;42.75;;;34.40;68.80;;;;;;1744311;79;21169;-81
2023/04/12 03:20:49;;;;;;;49.53;42.88;;;34.50;67.80;;;;;;1772873;79;21205;-81
2023/04/12 03:23:20;;;;;;;47.90;42.13;;;34.70;67.50;;;;;;1803559;79;21241;-80
2023/04/12 03:25:51;;;;;;;47.05;42.13;;;34.70;67.50;;;;;;1801591;79;21185;-80
2023/04/12 03:28:22;;;;;;;49.60;43.87;;;34.80;66.70;;;;;;1795905;79;21145;-81
2023/04/12 03:30:53;;;;;;;48.38;43.20;;;34.90;65.50;;;;;;1789920;79;21605;-81
2023/04/12 03:33:24;;;;;;;46.50;41.60;;;34.90;65.70;;;;;;1775027;78;21612;-81
2023/04/12 03:35:55;;;;;;;45.83;41.00;;;34.80;66.00;;;;;;1808593;79;21137;-82
2023/04/12 03:38:26;;;;;;;47.10;42.10;;;34.90;66.30;;;;;;1795793;80;21672;-80
2023/04/12 03:40:57;;;;;;;74.65;42.50;;;35.00;65.30;;;;;;1767384;78;21173;-81
2023/04/12 03:43:34;;;;;;;49.40;43.05;;;35.10;65.00;;;;;;1768235;81;21103;-81
2023/04/12 03:46:01;;;;;;;47.25;41.70;;;35.20;65.30;;;;;;1768512;79;21131;-80
2023/04/12 03:48:32;;;;;;;44.80;39.88;;;35.20;64.10;;;;;;1767608;81;21186;-81
2023/04/12 03:51:07;;;;;;;48.70;43.35;;;35.30;64.00;;;;;;1788374;78;21247;-80
2023/04/12 03:53:36;;;;;;;46.70;41.92;;;35.40;63.20;;;;;;1780975;78;21176;-79
2023/04/12 03:56:08;;;;;;;50.65;45.17;;;35.50;62.70;;;;;;1771068;78;21145;-82
2023/04/12 03:58:39;;;;;;;48.30;43.05;;;35.50;62.10;;;;;;1777155;78;21695;-79
2023/04/12 04:01:12;;;;;;;55.12;42.43;;;35.60;61.30;;;;;;1774251;78;21157;-80
2023/04/12 04:03:43;;;;;;;52.80;45.58;;;35.70;62.40;;;;;;1796191;80;21200;-80
2023/04/12 04:06:16;;;;;;;52.30;43.73;;;35.80;62.00;;;;;;1796117;78;21231;-80
2023/04/12 04:08:47;;;;;;;47.08;42.03;;;35.80;61.20;;;;;;1796098;80;21173;-79
2023/04/12 04:11:18;;;;;;;49.55;44.27;;;35.90;59.20;;;;;;1791471;78;21254;-78
2023/04/12 04:13:50;;;;;;;50.35;44.25;;;36.00;60.60;;;;;;1784847;78;21133;-80
2023/04/12 04:16:21;;;;;;;46.45;41.65;;;36.00;60.20;;;;;;1739669;81;21166;-80
2023/04/12 04:18:52;;;;;;;46.08;41.25;;;36.10;58.50;;;;;;1737434;80;21142;-80
2023/04/12 04:21:23;;;;;;;44.40;39.88;;;36.10;58.50;;;;;;1771398;78;21832;-79
2023/04/12 04:23:57;;;;;;;48.75;43.23;;;36.10;59.00;;;;;;1778656;78;21535;-81
2023/04/12 04:26:37;;;;;;;46.25;41.25;;;36.10;60.90;;;;;;1804377;79;21136;-81
2023/04/12 04:29:04;;;;;;;46.23;40.80;;;36.20;60.60;;;;;;1804475;78;21223;-79
2023/04/12 04:31:35;;;;;;;45.15;40.30;;;36.30;59.60;;;;;;1785130;79;21118;-81
2023/04/12 04:34:07;;;;;;;45.85;41.23;;;36.30;59.80;;;;;;1770457;79;21224;-79
2023/04/12 04:36:40;;;;;;;45.35;40.78;;;36.40;59.50;;;;;;1777035;79;21261;-80
2023/04/12 04:39:11;;;;;;;44.67;40.05;;;36.30;58.40;;;;;;1793735;79;21185;-80
2023/04/12 04:41:43;;;;;;;47.15;40.95;;;36.30;58.30;;;;;;1795022;78;21070;-81
2023/04/12 04:44:14;;;;;;;49.08;43.98;;;36.40;57.80;;;;;;1782412;79;21118;-81
2023/04/12 04:46:47;;;;;;;44.08;39.40;;;36.40;57.70;;;;;;1796263;80;21200;-80
2023/04/12 04:49:18;;;;;;;42.78;38.50;;;36.50;57.40;;;;;;1792851;80;21178;-80
2023/04/12 04:51:49;;;;;;;46.83;39.78;;;36.60;57.60;;;;;;1780656;79;21161;-81
2023/04/12 04:54:20;;;;;;;45.98;40.92;;;36.60;57.60;;;;;;1778774;78;21142;-82
2023/04/12 04:56:51;;;;;;;44.90;40.23;;;36.60;57.20;;;;;;1769758;80;21205;-79
2023/04/12 04:59:22;;;;;;;74.82;41.65;;;36.60;57.80;;;;;;1770638;79;21618;-81
2023/04/12 05:01:53;;;;;;;51.63;39.95;;;36.70;57.20;;;;;;1768993;79;21283;-80
2023/04/12 05:04:24;;;;;;;43.52;39.27;;;36.80;56.60;;;;;;1767184;79;21148;-82
2023/04/12 05:06:55;;;;;;;43.52;38.73;;;36.90;56.60;;;;;;1770601;81;21214;-82
2023/04/12 05:09:26;;;;;;;47.78;39.30;;;37.00;56.70;;;;;;1770853;80;21257;-81
2023/04/12 05:11:57;;;;;;;42.98;38.60;;;37.00;55.10;;;;;;1774959;78;21484;-80
2023/04/12 05:14:28;;;;;;;59.83;38.58;;;37.10;55.30;;;;;;1742526;80;21122;-78
2023/04/12 05:17:01;;;;;;;41.00;36.95;;;37.10;55.00;;;;;;1782541;78;21089;-82
2023/04/12 05:19:32;;;;;;;40.83;36.73;;;37.20;54.90;;;;;;1779780;78;21219;-82
2023/04/12 05:22:03;;;;;;;42.93;38.48;;;37.20;55.80;;;;;;1777727;78;21109;-81
2023/04/12 05:24:34;;;;;;;44.70;39.98;;;37.20;54.80;;;;;;1748615;80;21166;-83
2023/04/12 05:27:05;;;;;;;42.08;37.78;;;37.20;54.50;;;;;;1779684;79;21149;-81
2023/04/12 05:29:36;;;;;;;44.48;39.88;;;37.20;53.90;;;;;;1768417;80;21105;-81
2023/04/12 05:32:07;;;;;;;43.23;38.90;;;37.20;54.70;;;;;;1785229;78;21144;-82
2023/04/12 05:34:38;;;;;;;44.00;39.10;;;37.20;54.90;;;;;;1799285;79;21145;-82
2023/04/12 05:37:10;;;;;;;42.23;37.63;;;37.20;54.70;;;;;;1783517;78;21200;-81
2023/04/12 05:39:41;;;;;;;42.50;38.17;;;37.20;54.30;;;;;;1769145;79;21148;-82
2023/04/12 05:42:12;;;;;;;41.68;37.55;;;37.20;54.50;;;;;;1780475;78;21152;-82
2023/04/12 05:44:44;;;;;;;45.00;40.50;;;37.30;53.20;;;;;;1744451;80;21196;-82
2023/04/12 05:47:16;;;;;;;45.65;40.83;;;37.30;53.20;;;;;;1787559;77;21560;-82
2023/04/12 05:49:47;;;;;;;44.55;39.98;;;37.40;52.80;;;;;;1740791;81;21189;-82
2023/04/12 05:52:18;;;;;;;45.10;38.48;;;37.40;53.00;;;;;;1737474;80;21113;-82
2023/04/12 05:54:50;;;;;;;43.75;39.35;;;37.40;53.10;;;;;;1773651;78;21086;-82
2023/04/12 05:57:21;;;;;;;42.58;38.40;;;37.40;53.90;;;;;;1784045;78;21114;-82
2023/04/12 05:59:53;;;;;;;43.13;38.58;;;37.40;53.10;;;;;;1789387;79;21629;-81
2023/04/12 06:02:24;;;;;;;44.13;39.63;;;37.50;53.40;;;;;;1787408;78;21702;-82
2023/04/12 06:04:56;;;;;;;47.60;42.65;;;37.50;53.10;;;;;;1780467;78;21305;-81
2023/04/12 06:07:28;;;;;;;43.65;39.40;;;37.60;51.90;;;;;;1784698;78;21085;-83
2023/04/12 06:09:59;;;;;;;48.50;43.25;;;37.60;52.40;;;;;;1815807;79;21156;-81
2023/04/12 06:12:30;;;;;;;43.08;38.02;;;37.70;51.50;;;;;;1774501;79;21144;-81
2023/04/12 06:15:01;;;;;;;41.75;37.13;;;37.70;51.90;;;;;;1778331;78;21079;-80
2023/04/12 06:17:32;;;;;;;44.50;37.70;;;37.70;52.30;;;;;;1737641;81;21495;-80
2023/04/12 06:20:12;;;;;;;48.83;38.20;;;37.80;51.90;;;;;;1768031;80;21161;-82
2023/04/12 06:22:36;;;;;;;41.88;37.40;;;37.80;52.60;;;;;;1745355;80;21824;-81
2023/04/12 06:25:08;;;;;;;41.70;37.38;;;37.80;51.70;;;;;;1769773;78;21106;-82
2023/04/12 06:27:39;;;;;;;43.08;38.65;;;37.80;51.20;;;;;;1779604;78;21638;-82
2023/04/12 06:30:30;;;;;;;42.30;37.80;;;37.80;51.50;;;;;;1715507;82;21117;-82
2023/04/12 06:33:01;;;;;;;47.93;38.90;;;37.90;51.20;;;;;;1791756;79;21146;-79
2023/04/12 06:35:33;;;;;;;55.28;40.23;;;37.90;51.40;;;;;;1777559;80;21242;-82
2023/04/12 06:38:04;;;;;;;43.15;38.70;;;37.90;51.20;;;;;;1760850;80;21171;-84
2023/04/12 06:40:35;;;;;;;43.25;38.75;;;38.00;50.10;;;;;;1774429;79;21622;-83
2023/04/12 06:43:06;;;;;;;43.33;38.92;;;38.00;50.40;;;;;;1764028;79;21682;-82
2023/04/12 06:45:37;;;;;;;42.70;38.35;;;38.00;50.50;;;;;;1807376;78;21178;-84
2023/04/12 06:48:08;;;;;;;45.05;40.43;;;37.90;50.30;;;;;;1765361;80;21617;-82
2023/04/12 06:50:40;;;;;;;45.20;40.60;;;37.90;50.80;;;;;;1789890;79;21450;-82
2023/04/12 06:53:16;;;;;;;41.83;37.58;;;37.90;50.90;;;;;;1762038;80;21250;-82
2023/04/12 06:55:44;;;;;;;41.45;37.28;;;37.90;50.70;;;;;;1777675;80;21159;-79
2023/04/12 06:58:15;;;;;;;40.88;36.65;;;37.80;50.70;;;;;;1759193;80;21182;-83
2023/04/12 07:00:46;;;;;;;39.83;35.98;;;37.80;50.60;;;;;;1753673;80;21150;-82
2023/04/12 07:03:17;;;;;;;40.48;36.35;;;37.90;50.00;;;;;;1795272;77;21083;-79
2023/04/12 07:05:49;;;;;;;41.60;37.25;;;37.90;50.30;;;;;;1797967;79;21672;-82
2023/04/12 07:08:20;;;;;;;42.17;38.08;;;38.00;50.30;;;;;;1796187;78;21146;-75
2023/04/12 07:10:56;;;;;;;41.83;37.53;;;38.00;50.30;;;;;;1815901;77;21201;-79
2023/04/12 07:13:28;;;;;;;42.00;37.88;;;38.00;50.30;;;;;;1811168;77;21235;-82
2023/04/12 07:15:59;;;;;;;39.90;35.63;;;38.00;50.00;;;;;;1794290;78;21136;-84
2023/04/12 07:18:30;;;;;;;40.30;36.13;;;38.00;49.50;;;;;;1798622;79;21190;-85
2023/04/12 07:21:02;;;;;;;41.88;37.65;;;38.00;50.00;;;;;;1810587;78;21209;-82
2023/04/12 07:23:33;;;;;;;42.75;38.42;;;37.90;49.80;;;;;;1805341;78;21575;-83
2023/04/12 07:26:04;;;;;;;42.23;37.93;;;37.90;49.90;;;;;;1818637;77;21227;-80
2023/04/12 07:28:36;;;;;;;39.38;35.63;;;37.90;49.60;;;;;;1801283;77;21154;-81
2023/04/12 07:31:08;;;;;;;39.98;35.75;;;37.90;50.00;;;;;;1750523;80;21227;-83
2023/04/12 07:33:39;;;;;;;41.45;37.28;;;37.80;49.80;;;;;;1787232;78;21689;-87
2023/04/12 07:36:12;;;;;;;40.85;36.85;;;37.80;50.40;;;;;;1790418;78;21116;-85
2023/04/12 07:38:43;;;;;;;42.30;36.88;;;37.90;50.00;;;;;;1797969;78;21126;-81
2023/04/12 07:41:14;;;;;;;37.13;33.15;;;37.90;50.00;;;;;;1778355;78;21154;-81
2023/04/12 07:43:45;;;;;;;38.85;34.65;;;38.00;50.10;;;;;;1811156;78;21146;-81
2023/04/12 07:46:16;;;;;;;47.80;35.13;;;38.00;50.10;;;;;;1788802;78;21248;-78
2023/04/12 07:48:47;;;;;;;36.68;33.10;;;38.10;50.20;;;;;;1782754;79;21190;-86
2023/04/12 07:51:18;;;;;;;39.20;34.35;;;38.00;49.50;;;;;;1786432;78;21156;-83
2023/04/12 07:53:50;;;;;;;38.65;34.53;;;38.00;49.50;;;;;;1797160;79;21244;-84
2023/04/12 07:56:21;;;;;;;37.13;33.33;;;38.00;49.60;;;;;;1791989;79;21136;-84
2023/04/12 07:58:52;;;;;;;37.05;33.35;;;38.00;49.40;;;;;;1788434;79;21147;-85
2023/04/12 08:01:23;;;;;;;37.00;33.40;;;38.00;49.20;;;;;;1790934;79;21126;-85
2023/04/12 08:03:54;;;;;;;36.50;32.73;;;38.00;49.70;;;;;;1793866;79;21092;-84
2023/04/12 08:06:26;;;;;;;34.95;31.45;;;38.00;49.90;;;;;;1743714;80;21863;-86
2023/04/12 08:08:58;;;;;;;36.00;32.23;;;38.00;49.40;;;;;;1789384;78;21204;-84
2023/04/12 08:11:29;;;;;;;37.67;34.00;;;38.00;49.70;;;;;;1798457;79;21094;-84
2023/04/12 08:14:00;;;;;;;39.33;34.40;;;38.00;49.00;;;;;;1804232;78;21215;-84
2023/04/12 08:16:32;;;;;;;36.65;33.02;;;38.10;49.20;;;;;;1793352;78;21140;-84
2023/04/12 08:19:03;;;;;;;37.23;33.40;;;38.20;49.50;;;;;;1772594;80;21696;-85
2023/04/12 08:21:34;;;;;;;38.02;34.30;;;38.20;48.80;;;;;;1751185;79;21179;-83
2023/04/12 08:24:05;;;;;;;35.78;32.38;;;38.20;48.70;;;;;;1784930;78;21158;-84
2023/04/12 08:26:37;;;;;;;36.68;32.98;;;38.20;48.90;;;;;;1815631;77;21230;-82
2023/04/12 08:29:08;;;;;;;40.15;35.80;;;38.20;48.40;;;;;;1824605;77;21201;-84
2023/04/12 08:31:39;;;;;;;37.15;33.45;;;38.20;48.00;;;;;;1810821;77;21143;-85
2023/04/12 08:34:11;;;;;;;37.28;33.28;;;38.20;48.50;;;;;;1808385;77;21138;-84
2023/04/12 08:36:42;;;;;;;37.50;33.75;;;38.20;48.60;;;;;;1811057;78;21149;-83
2023/04/12 08:39:13;;;;;;;37.23;33.48;;;38.10;48.10;;;;;;1800140;78;21143;-85
2023/04/12 08:41:44;;;;;;;36.55;32.78;;;38.00;48.70;;;;;;1795013;79;21192;-84
2023/04/12 08:44:17;;;;;;;37.38;33.60;;;38.00;48.90;;;;;;1789864;78;21169;-84
2023/04/12 08:46:49;;;;;;;38.13;34.35;;;37.90;48.80;;;;;;1795772;79;21116;-85
2023/04/12 08:49:23;;;;;;;35.52;32.23;;;37.90;48.50;;;;;;1815288;77;21142;-84
2023/04/12 08:51:55;;;;;;;38.35;34.58;;;37.90;48.50;;;;;;1776103;80;21174;-85
2023/04/12 08:54:26;;;;;;;38.95;34.75;;;37.90;48.10;;;;;;1781274;80;21105;-83
2023/04/12 08:57:00;;;;;;;41.00;36.73;;;37.90;48.70;;;;;;1784618;79;21113;-85
2023/04/12 08:59:32;;;;;;;37.30;33.70;;;37.90;48.90;;;;;;1795609;80;21153;-85
2023/04/12 09:02:03;;;;;;;37.75;34.15;;;37.90;48.30;;;;;;1795447;79;21201;-87
2023/04/12 09:04:34;;;;;;;39.50;35.40;;;37.90;48.00;;;;;;1795226;79;21134;-88
2023/04/12 09:07:05;;;;;;;38.38;34.67;;;38.00;48.80;;;;;;1799438;78;21159;-86
2023/04/12 09:09:45;;;;;;;37.42;33.48;;;38.00;48.50;;;;;;1824615;78;21123;-87
2023/04/12 09:12:18;;;;;;;37.30;33.73;;;37.90;48.30;;;;;;1817394;78;21087;-85
2023/04/12 09:14:50;;;;;;;37.08;33.38;;;37.90;48.20;;;;;;1798846;79;21231;-87
2023/04/12 09:17:28;;;;;;;37.58;33.45;;;37.90;48.20;;;;;;1795653;79;21106;-82
2023/04/12 09:19:59;;;;;;;37.33;33.53;;;37.80;48.30;;;;;;1820179;78;21156;-87
2023/04/12 09:22:44;;;;;;;36.15;32.50;;;37.80;48.60;;;;;;1810923;79;21179;-88
2023/04/12 09:25:14;;;;;;;42.03;37.73;;;37.70;48.60;;;;;;1808681;79;21228;-88
2023/04/12 09:27:49;;;;;;;39.40;35.55;;;37.70;50.80;;;;;;1793685;79;21233;-88
2023/04/12 09:30:21;;;;;;;39.18;35.33;;;37.70;49.90;;;;;;1809744;79;21151;-88
2023/04/12 09:32:53;;;;;;;39.63;35.33;;;37.70;49.30;;;;;;1818162;78;21192;-87
2023/04/12 09:35:36;;;;;;;38.28;34.53;;;37.70;49.40;;;;;;1823331;78;21097;-85
2023/04/12 09:38:11;;;;;;;40.80;35.05;;;37.60;49.00;;;;;;1809585;79;21250;-87
2023/04/12 09:40:42;;;;;;;39.50;35.28;;;37.50;48.10;;;;;;1804572;79;21219;-87
2023/04/12 09:43:14;;;;;;;39.45;35.50;;;37.50;48.10;;;;;;1814328;78;21164;-87
2023/04/12 09:45:46;;;;;;;44.35;38.98;;;37.60;47.70;;;;;;1812129;79;21156;-87
2023/04/12 09:48:22;;;;;;;48.80;42.62;;;37.50;48.10;;;;;;1809554;79;21094;-85
2023/04/12 09:50:55;;;;;;;38.92;34.80;;;37.60;47.40;;;;;;1798116;80;21136;-85
2023/04/12 09:53:28;;;;;;;38.78;34.67;;;37.60;47.80;;;;;;1796301;80;21443;-89
2023/04/12 09:56:01;;;;;;;39.70;35.60;;;37.60;47.60;;;;;;1798094;79;21129;-89
2023/04/12 09:58:37;;;;;;;44.95;40.28;;;37.60;47.50;;;;;;1807408;78;21146;-90
2023/04/12 10:01:09;;;;;;;49.90;39.70;;;37.60;48.00;;;;;;1803075;79;21182;-89
2023/04/12 10:03:41;;;;;;;53.02;38.83;;;37.60;48.30;;;;;;1808862;79;21641;-87
2023/04/12 10:06:13;;;;;;;70.08;43.40;;;37.50;48.60;;;;;;1811529;78;21095;-88
2023/04/12 10:08:45;;;;;;;46.65;37.70;;;37.50;48.60;;;;;;1795607;79;21154;-89
2023/04/12 10:11:16;;;;;;;47.62;40.60;;;37.40;48.20;;;;;;1791255;80;21211;-88
2023/04/12 10:13:49;;;;;;;51.58;40.78;;;37.40;47.70;;;;;;1794315;79;21154;-86
2023/04/12 10:16:21;;;;;;;49.67;41.00;;;37.30;48.50;;;;;;1805964;79;21111;-89
2023/04/12 10:18:52;;;;;;;47.13;41.83;;;37.40;48.50;;;;;;1817147;79;21086;-86
2023/04/12 10:21:24;;;;;;;38.15;34.05;;;37.30;48.50;;;;;;1808201;78;21143;-90
2023/04/12 10:23:56;;;;;;;38.88;34.80;;;37.30;47.50;;;;;;1798105;80;21228;-87
2023/04/12 10:26:27;;;;;;;40.75;36.48;;;37.30;47.60;;;;;;1791550;78;21098;-90
2023/04/12 10:29:17;;;;;;;37.05;33.18;;;37.30;47.40;;;;;;1792191;78;21134;-90
2023/04/12 10:31:49;;;;;;;38.42;34.33;;;37.30;47.50;;;;;;1790512;80;21192;-91
2023/04/12 10:34:26;;;;;;;40.55;36.28;;;37.30;47.40;;;;;;1801382;78;21162;-90
2023/04/12 10:36:59;;;;;;;39.53;35.52;;;37.30;48.00;;;;;;1820270;79;21154;-89
2023/04/12 10:39:41;;;;;;;38.25;34.55;;;37.30;47.50;;;;;;1812436;77;21175;-87
2023/04/12 10:42:21;;;;;;;36.58;33.08;;;37.30;47.30;;;;;;1774400;80;21111;-89
2023/04/12 10:44:54;;;;;;;38.92;35.08;;;37.20;47.40;;;;;;1805727;79;21099;-88
2023/04/12 10:47:55;;;;;;;41.70;37.42;;;37.20;47.60;;;;;;1737511;79;21190;-88
2023/04/12 10:50:29;;;;;;;42.30;37.05;;;37.20;48.20;;;;;;1784406;80;21244;-89
2023/04/12 10:53:17;;;;;;;39.27;34.73;;;37.10;48.70;;;;;;1777934;80;21171;-88
2023/04/12 10:55:48;;;;;;;40.12;35.95;;;37.10;50.70;;;;;;1793630;77;21142;-89
2023/04/12 10:58:50;;;;;;;39.85;36.00;;;37.00;52.40;;;;;;1789310;79;21155;-89
2023/04/12 11:01:21;;;;;;;40.03;35.73;;;36.90;53.10;;;;;;1832327;77;21174;-88
2023/04/12 11:04:13;;;;;;;41.10;36.77;;;36.80;53.90;;;;;;1804913;79;21221;-88
2023/04/12 11:06:58;;;;;;;39.73;35.68;;;36.70;54.60;;;;;;1765387;80;21103;-87
2023/04/12 11:09:35;;;;;;;40.85;36.73;;;36.70;55.10;;;;;;1788495;79;21771;-90
2023/04/12 11:12:08;;;;;;;40.38;36.05;;;36.60;55.40;;;;;;1813663;78;21197;-86
2023/04/12 11:14:51;;;;;;;41.10;36.90;;;36.50;55.50;;;;;;1802478;78;21104;-84
2023/04/12 11:17:23;;;;;;;44.58;37.25;;;36.50;55.80;;;;;;1777592;81;21233;-86
2023/04/12 11:19:56;;;;;;;41.42;35.90;;;36.40;55.70;;;;;;1777293;81;21151;-87
2023/04/12 11:22:29;;;;;;;39.90;36.08;;;36.30;55.80;;;;;;1814878;77;21088;-86
2023/04/12 11:25:02;;;;;;;38.88;35.00;;;36.30;56.10;;;;;;1777004;81;21127;-86
2023/04/12 11:27:33;;;;;;;39.08;35.15;;;36.30;56.20;;;;;;1807929;79;21066;-84
2023/04/12 11:30:05;;;;;;;40.23;36.05;;;36.30;56.10;;;;;;1807357;79;21159;-87
2023/04/12 11:32:40;;;;;;;41.18;36.70;;;36.20;56.30;;;;;;1805861;78;21183;-86
2023/04/12 11:35:09;;;;;;;41.28;36.77;;;36.20;56.50;;;;;;1806313;79;21174;-85
2023/04/12 11:37:41;;;;;;;46.23;36.70;;;36.20;56.60;;;;;;1813988;76;21150;-85
2023/04/12 11:40:12;;;;;;;42.48;37.35;;;36.10;57.00;;;;;;1825397;78;21187;-86
2023/04/12 11:42:43;;;;;;;41.18;36.77;;;36.10;57.20;;;;;;1779704;80;21237;-86
2023/04/12 11:45:17;;;;;;;41.40;36.93;;;36.00;57.40;;;;;;1812718;79;21217;-87
2023/04/12 11:47:48;;;;;;;41.25;36.93;;;36.00;57.40;;;;;;1808339;77;21147;-85
2023/04/12 11:50:29;;;;;;;39.05;34.75;;;36.00;57.60;;;;;;1818965;77;21098;-85
2023/04/12 11:53:16;;;;;;;39.95;35.98;;;36.00;57.70;;;;;;1824618;77;21154;-86
2023/04/12 11:56:04;;;;;;;;;;;36.00;57.70;;;;;;1809726;78;21065;-88
2023/04/12 11:58:40;;;;;;;39.75;35.38;;;35.90;56.90;;;;;;1838796;77;20233;-85
2023/04/12 12:01:11;;;;;;;41.13;36.90;;;35.90;57.60;;;;;;1826465;77;21249;-83
2023/04/12 12:03:45;;;;;;;41.42;36.00;;;35.90;57.80;;;;;;1813190;77;21158;-84
2023/04/12 12:06:17;;;;;;;42.83;36.63;;;35.80;57.90;;;;;;1819107;79;21582;-83
2023/04/12 12:08:51;;;;;;;40.88;36.55;;;35.90;58.00;;;;;;1862158;76;21806;-83
2023/04/12 12:11:23;;;;;;;39.98;35.75;;;35.80;58.00;;;;;;1882162;76;21133;-85
2023/04/12 12:13:55;;;;;;;39.95;36.00;;;35.80;58.20;;;;;;1857075;76;21150;-85
2023/04/12 12:16:30;;;;;;;38.48;34.43;;;35.80;58.00;;;;;;1826576;78;21201;-85
2023/04/12 12:19:05;;;;;;;41.13;35.52;;;35.70;57.90;;;;;;1833859;77;21122;-84
2023/04/12 12:21:36;;;;;;;42.93;37.73;;;35.70;58.00;;;;;;1856948;77;21126;-85
2023/04/12 12:24:09;;;;;;;40.88;34.60;;;35.70;58.30;;;;;;1855519;77;21123;-85
2023/04/12 12:26:42;;;;;;;41.85;36.85;;;35.70;58.10;;;;;;1828277;77;21098;-85
2023/04/12 12:29:18;;;;;;;39.80;35.75;;;35.60;58.30;;;;;;1843504;77;21146;-85
2023/04/12 12:31:49;;;;;;;41.65;37.23;;;35.60;58.00;;;;;;1851760;77;21139;-85
2023/04/12 12:34:21;;;;;;;40.98;36.65;;;35.60;58.10;;;;;;1848250;77;21153;-86
2023/04/12 12:36:55;;;;;;;42.88;38.63;;;35.60;58.10;;;;;;1855046;77;21192;-84
2023/04/12 12:39:27;;;;;;;44.63;39.63;;;35.70;58.30;;;;;;1838823;77;21198;-85
2023/04/12 12:41:59;;;;;;;49.77;42.53;;;35.60;58.20;;;;;;1824671;78;21151;-83
2023/04/12 12:44:30;;;;;;;49.95;44.35;;;35.60;58.30;;;;;;1845536;77;21213;-83
2023/04/12 12:47:02;;;;;;;52.08;43.98;;;35.60;58.30;;;;;;1844003;77;22392;-83
2023/04/12 12:49:35;;;;;;;52.45;43.73;;;35.60;58.40;;;;;;1835394;77;21740;-85
2023/04/12 12:52:06;;;;;;;52.70;47.30;;;35.60;58.60;;;;;;1832884;78;21516;-83
2023/04/12 12:54:37;;;;;;;53.95;48.08;;;35.60;58.70;;;;;;1844366;76;21096;-85
2023/04/12 12:57:09;;;;;;;55.55;49.40;;;35.60;58.80;;;;;;1821124;77;21150;-84
2023/04/12 12:59:40;;;;;;;54.20;47.73;;;35.60;59.00;;;;;;1822614;77;21103;-84